createdAt,value
2023-03-02T00:01:16.024Z,97579.27666090807
2023-03-02T00:04:22.251Z,97583.24902583778
2023-03-02T00:07:21.617Z,97584.25265971562
2023-03-02T00:11:16.260Z,97584.44393472603
2023-03-02T00:14:16.777Z,97586.04181915168
2023-03-02T00:17:16.827Z,97588.00130274794
2023-03-02T00:21:17.085Z,97593.49886391735
2023-03-02T00:24:17.123Z,97591.50282795471
2023-03-02T00:27:16.911Z,97588.32694661336
2023-03-02T00:31:16.949Z,97590.30567195483
2023-03-02T00:34:17.286Z,97596.20564811725
2023-03-02T00:37:17.194Z,97600.90469416762
2023-03-02T00:41:16.472Z,97591.94503033347
2023-03-02T00:44:17.921Z,97583.51288937284
2023-03-02T00:47:16.490Z,97582.42392603106
2023-03-02T00:51:17.031Z,97577.45949385696
2023-03-02T00:54:16.619Z,97578.39359803972
2023-03-02T00:57:16.608Z,97568.70474695414
2023-03-02T01:01:18.648Z,97565.07401034825
2023-03-02T01:04:17.297Z,97555.89283095454
2023-03-02T01:07:19.506Z,97556.8899004684
2023-03-02T01:11:20.271Z,97565.25831553781
2023-03-02T01:14:18.007Z,97561.12807967102
2023-03-02T01:17:17.726Z,97564.27087769401
2023-03-02T01:21:16.622Z,97558.82562996725
2023-03-02T01:24:16.979Z,97551.46184448987
2023-03-02T01:27:17.025Z,97544.1836169536
2023-03-02T01:31:16.363Z,97543.966880356
2023-03-02T01:34:16.715Z,97538.87856694689
2023-03-02T01:37:16.771Z,97536.61102428287
2023-03-02T01:41:16.886Z,97540.04354175362
2023-03-02T01:44:50.822Z,97538.42864515077
2023-03-02T01:47:21.014Z,97543.80765401706
2023-03-02T01:51:21.377Z,97543.62934267792
2023-03-02T01:54:21.084Z,97536.07935706737
2023-03-02T01:57:21.912Z,97533.88729439238
2023-03-02T02:01:16.473Z,97530.4772123313
2023-03-02T02:04:17.647Z,97531.54437058413
2023-03-02T02:07:16.512Z,97534.42554973792
2023-03-02T02:11:16.616Z,97533.81965035338
2023-03-02T02:14:16.691Z,97527.24060419832
2023-03-02T02:17:18.331Z,97527.65896206758
2023-03-02T02:21:17.130Z,97534.44783455627
2023-03-02T02:24:22.239Z,97537.57947977267
2023-03-02T02:27:16.271Z,97530.76476617165
2023-03-02T02:31:21.122Z,97522.14924867376
2023-03-02T02:34:21.657Z,97520.81239752808
2023-03-02T02:37:21.783Z,97513.94038424766
2023-03-02T02:41:21.781Z,97518.83668860052
2023-03-02T02:44:18.342Z,97509.20597192843
2023-03-02T02:47:20.217Z,97510.27142610059
2023-03-02T02:51:21.954Z,97502.60157651438
2023-03-02T02:54:18.053Z,97495.20713416405
2023-03-02T02:57:19.642Z,97506.55403173903
2023-03-02T03:01:20.615Z,97515.24623128233
2023-03-02T03:04:20.422Z,97510.27224214005
2023-03-02T03:07:21.804Z,97506.93119447138
2023-03-02T03:11:18.228Z,97499.4776139994
2023-03-02T03:14:19.341Z,97486.79171918094
2023-03-02T03:17:17.059Z,97480.16019349953
2023-03-02T03:21:18.597Z,97483.02097669755
2023-03-02T03:24:16.968Z,97487.81242716343
2023-03-02T03:27:16.657Z,97492.08235970022
2023-03-02T03:31:16.771Z,97489.15934182414
2023-03-02T03:34:17.081Z,97482.46834826168
2023-03-02T03:37:19.021Z,97483.41120131429
2023-03-02T03:41:16.346Z,97475.98974800899
2023-03-02T03:44:16.874Z,97472.88276906326
2023-03-02T03:47:16.742Z,97469.79959299865
2023-03-02T03:51:18.395Z,97471.04874794214
2023-03-02T03:54:16.920Z,97469.75296641752
2023-03-02T03:57:16.964Z,97466.6796679062
2023-03-02T04:01:16.753Z,97469.5216950841
2023-03-02T04:04:20.126Z,97466.09439606381
2023-03-02T04:07:17.282Z,97462.54025761552
2023-03-02T04:11:16.938Z,97455.98478753558
2023-03-02T04:14:19.198Z,97464.11633737973
2023-03-02T04:17:17.204Z,97461.22485113563
2023-03-02T04:21:16.592Z,97454.03969195376
2023-03-02T04:24:18.310Z,97450.38092539247
2023-03-02T04:27:18.098Z,97450.07087200365
2023-03-02T04:31:16.950Z,97455.8576999861
2023-03-02T04:34:17.145Z,97459.7396071243
2023-03-02T04:37:16.861Z,97470.1011162248
2023-03-02T04:41:16.663Z,97478.33420489685
2023-03-02T04:44:18.099Z,97476.87487071722
2023-03-02T04:47:16.893Z,97478.04796237052
2023-03-02T04:51:20.985Z,97486.58532842582
2023-03-02T04:54:19.156Z,97489.28220193845
2023-03-02T04:57:17.773Z,97487.0358037453
2023-03-02T05:01:18.132Z,97486.42795710586
2023-03-02T05:04:17.641Z,97487.41025055628
2023-03-02T05:07:16.905Z,97486.37515608528
2023-03-02T05:11:22.691Z,97488.73505236271
2023-03-02T05:14:16.668Z,97492.06873236535
2023-03-02T05:17:16.569Z,97494.00534804924
2023-03-02T05:21:17.827Z,97490.25162678857
2023-03-02T05:24:17.082Z,97482.5311156354
2023-03-02T05:27:16.807Z,97474.860188088
2023-03-02T05:31:18.916Z,97468.32025378177
2023-03-02T05:34:17.698Z,97467.72451359674
2023-03-02T05:37:20.210Z,97466.08382476552
2023-03-02T05:41:17.293Z,97482.59856110644
2023-03-02T05:44:17.159Z,97481.62836153855
2023-03-02T05:47:17.128Z,97486.84194667399
2023-03-02T05:51:16.550Z,97495.88105153265
2023-03-02T05:54:18.333Z,97503.76578323645
2023-03-02T05:57:16.990Z,97503.55365359379
2023-03-02T06:01:16.382Z,97500.63625634357
2023-03-02T06:04:19.216Z,97498.87805374764
2023-03-02T06:07:16.696Z,97503.97754631513
2023-03-02T06:11:16.138Z,97505.97608955807
2023-03-02T06:14:16.272Z,97504.85119372142
2023-03-02T06:17:16.273Z,97502.87208390911
2023-03-02T06:21:16.503Z,97513.6980526492
2023-03-02T06:24:16.843Z,97514.35928076316
2023-03-02T06:27:16.843Z,97512.87177691048
2023-03-02T06:31:16.648Z,97512.06370729452
2023-03-02T06:34:16.881Z,97511.60899809707
2023-03-02T06:37:16.891Z,97514.50963907316
2023-03-02T06:41:16.372Z,97515.24653531348
2023-03-02T06:44:17.471Z,97517.40562013266
2023-03-02T06:47:16.705Z,97515.79094638495
2023-03-02T06:51:16.175Z,97519.74547160191
2023-03-02T06:54:16.524Z,97519.81760575298
2023-03-02T06:57:16.520Z,97519.8693528994
2023-03-02T07:01:16.874Z,97518.5087875929
2023-03-02T07:04:17.411Z,97523.82613915103
2023-03-02T07:07:17.166Z,97523.40993391156
2023-03-02T07:11:16.209Z,97527.16236937075
2023-03-02T07:14:16.344Z,97532.64125508464
2023-03-02T07:17:16.779Z,97536.83475042689
2023-03-02T07:21:17.008Z,97535.95330219963
2023-03-02T07:24:16.871Z,97540.162898708
2023-03-02T07:27:16.830Z,97545.70831980107
2023-03-02T07:31:16.372Z,97555.13330830171
2023-03-02T07:34:16.821Z,97556.9368256967
2023-03-02T07:37:16.840Z,97556.01315424709
2023-03-02T07:41:17.251Z,97559.16481061719
2023-03-02T07:44:16.996Z,97558.80684867133
2023-03-02T07:47:17.315Z,97563.46907881793
2023-03-02T07:51:16.542Z,97568.48940941984
2023-03-02T07:54:16.765Z,97564.42921221077
2023-03-02T07:57:18.352Z,97565.83817101536
2023-03-02T08:01:16.877Z,97564.254860475
2023-03-02T08:04:16.825Z,97564.22151683262
2023-03-02T08:07:16.912Z,97567.34972523773
2023-03-02T08:11:17.931Z,97553.66195265982
2023-03-02T08:14:16.869Z,97546.3916332606
2023-03-02T08:17:16.869Z,97542.24275859259
2023-03-02T08:21:18.454Z,97534.76749203722
2023-03-02T08:24:17.022Z,97540.56653209029
2023-03-02T08:27:17.093Z,97535.97087846191
2023-03-02T08:31:16.383Z,97536.45324393634
2023-03-02T08:34:16.337Z,97535.45195211882
2023-03-02T08:37:16.310Z,97535.87385197716
2023-03-02T08:41:18.641Z,97526.6156679849
2023-03-02T08:44:18.249Z,97523.20717831864
2023-03-02T08:47:17.148Z,97519.94186380453
2023-03-02T08:51:17.751Z,97517.91625903265
2023-03-02T08:54:16.625Z,97515.9655052798
2023-03-02T08:57:16.207Z,97518.20581888137
2023-03-02T09:01:18.086Z,97535.88388483886
2023-03-02T09:04:16.511Z,97530.45409496581
2023-03-02T09:07:17.629Z,97534.73220132594
2023-03-02T09:31:16.904Z,97514.64261965359
2023-03-02T09:34:16.755Z,97523.04222359128
2023-03-02T09:37:16.694Z,97525.31589655406
2023-03-02T09:41:40.035Z,97530.62196268109
2023-03-02T09:44:35.282Z,97528.01242900544
2023-03-02T09:47:34.576Z,97542.61035736253
2023-03-02T09:51:30.923Z,97546.97522854469
2023-03-02T09:54:21.677Z,97552.1816458339
2023-03-02T09:57:22.069Z,97549.37910960575
2023-03-02T10:01:21.117Z,97564.26515237191
2023-03-02T10:04:23.380Z,97562.67605677414
2023-03-02T10:07:21.762Z,97559.2727350566
2023-03-02T10:11:25.966Z,97557.93201594021
2023-03-02T10:14:22.553Z,97561.24108534954
2023-03-02T10:17:32.237Z,97560.80468442297
2023-03-02T10:21:27.910Z,97563.04504422758
2023-03-02T10:24:29.204Z,97559.47078287227
2023-03-02T10:27:23.892Z,97554.76912785343
2023-03-02T10:31:25.140Z,97552.68670833648
2023-03-02T10:34:16.921Z,97552.61778693514
2023-03-02T10:37:19.788Z,97547.99357728989
2023-03-02T10:41:22.337Z,97549.98227380447
2023-03-02T10:44:21.951Z,97551.67106907714
2023-03-02T10:47:22.069Z,97551.16435728449
2023-03-02T10:51:25.987Z,97554.2950037937
2023-03-02T10:54:17.211Z,97548.57897045475
2023-03-02T10:57:29.412Z,97547.51723748671
2023-03-02T11:01:18.497Z,97544.58255854018
2023-03-02T11:04:17.111Z,97553.4968197016
2023-03-02T11:07:19.786Z,97554.49095408688
2023-03-02T11:11:22.741Z,97550.9092825152
2023-03-02T11:14:17.390Z,97557.80874815494
2023-03-02T11:17:31.089Z,97550.42100570242
2023-03-02T11:21:21.786Z,97539.26484528178
2023-03-02T11:24:21.003Z,97540.29862764354
2023-03-02T11:27:20.557Z,97530.50940948416
2023-03-02T11:31:25.729Z,97534.20222956949
2023-03-02T11:34:34.141Z,97540.09511818243
2023-03-02T11:37:20.463Z,97536.46616398159
2023-03-02T11:41:27.463Z,97540.50182319578
2023-03-02T11:44:19.538Z,97536.9395312285
2023-03-02T11:47:18.953Z,97539.10678448112
2023-03-02T11:51:21.318Z,97528.38734193289
2023-03-02T11:54:33.652Z,97528.74206752883
2023-03-02T11:57:22.066Z,97526.20985487709
2023-03-02T12:01:21.303Z,97532.4873750946
2023-03-02T12:04:27.156Z,97529.55106595915
2023-03-02T12:07:20.443Z,97528.63878502809
2023-03-02T12:11:32.580Z,97528.1512211469
2023-03-02T12:14:28.870Z,97525.98643023348
2023-03-02T12:17:21.167Z,97527.55799243561
2023-03-02T12:21:20.450Z,97532.82086680396
2023-03-02T12:24:26.953Z,97531.44562945975
2023-03-02T12:27:26.580Z,97528.65289612112
2023-03-02T12:31:16.440Z,97532.63144178627
2023-03-02T12:34:33.776Z,97531.84555708758
2023-03-02T12:37:22.841Z,97532.96829180201
2023-03-02T12:41:31.254Z,97534.42082509828
2023-03-02T12:44:33.133Z,97534.28038798213
2023-03-02T12:47:20.516Z,97531.12986770712
2023-03-02T12:51:20.339Z,97531.90517614549
2023-03-02T12:54:19.409Z,97529.46686731525
2023-03-02T12:57:19.315Z,97519.93130430355
2023-03-02T13:01:21.550Z,97524.68843005058
2023-03-02T13:04:26.105Z,97521.3626552593
2023-03-02T13:07:19.598Z,97521.16969870433
2023-03-02T13:11:23.302Z,97513.38512597437
2023-03-02T13:14:23.965Z,97515.440840428
2023-03-02T13:17:23.255Z,97511.28692404597
2023-03-02T13:21:20.436Z,97508.50528072416
2023-03-02T13:24:29.598Z,97498.75545545502
2023-03-02T13:27:20.207Z,97498.43054186448
2023-03-02T13:31:21.938Z,97487.96212106517
2023-03-02T13:34:21.560Z,97482.68048900062
2023-03-02T13:37:30.399Z,97481.64046568258
2023-03-02T13:41:21.973Z,97478.87646197721
2023-03-02T13:44:20.033Z,97475.82332000772
2023-03-02T13:47:22.429Z,97477.2294990542
2023-03-02T13:51:18.948Z,97471.79742682693
2023-03-02T13:54:22.327Z,97477.12869870175
2023-03-02T13:57:24.261Z,97478.41724207396
2023-03-02T14:01:18.439Z,97478.65001041829
2023-03-02T14:04:21.164Z,97475.43234615322
2023-03-02T14:07:19.283Z,97483.27312885605
2023-03-02T14:11:18.079Z,97482.41406393243
2023-03-02T14:14:20.505Z,97485.07840656495
2023-03-02T14:17:22.774Z,97489.78649813303
2023-03-02T14:21:18.709Z,97483.4759906927
2023-03-02T14:24:17.250Z,97479.07573307297
2023-03-02T14:27:18.809Z,97482.1960661189
2023-03-02T14:31:19.440Z,97476.14467587706
2023-03-02T14:34:17.820Z,97477.36009723511
2023-03-02T14:37:25.204Z,97476.36556965577
2023-03-02T14:41:21.262Z,97477.80172072088
2023-03-02T14:44:17.306Z,97478.35264574118
2023-03-02T14:47:19.432Z,97481.35332943819
2023-03-02T14:51:23.278Z,97482.75379175757
2023-03-02T14:54:19.319Z,97477.48213014247
2023-03-02T14:57:19.750Z,97480.92856667201
2023-03-02T15:01:18.317Z,97484.2191999903
2023-03-02T15:04:17.539Z,97481.5967402427
2023-03-02T15:07:19.265Z,97485.21332698983
2023-03-02T15:11:17.542Z,97486.20936714888
2023-03-02T15:14:17.806Z,97487.26263613497
2023-03-02T15:17:17.646Z,97487.33910533748
2023-03-02T15:21:20.680Z,97492.92289882684
2023-03-02T15:24:18.693Z,97496.75855464699
2023-03-02T15:27:18.191Z,97490.63676757233
2023-03-02T15:31:17.455Z,97495.84871433149
2023-03-02T15:34:16.873Z,97498.95222856766
2023-03-02T15:37:16.950Z,97499.18251515225
2023-03-02T15:41:16.965Z,97498.87429236309
2023-03-02T15:44:19.397Z,97504.88877576271
2023-03-02T15:47:17.861Z,97504.83607158152
2023-03-02T15:51:17.801Z,97505.02712772516
2023-03-02T15:54:18.447Z,97512.47376570039
2023-03-02T15:57:18.188Z,97514.65037399782
2023-03-02T16:01:17.441Z,97521.63333029841
2023-03-02T16:04:17.789Z,97520.93497427237
2023-03-02T16:07:16.934Z,97522.84454054665
2023-03-02T16:11:19.519Z,97528.6673202578
2023-03-02T16:14:17.515Z,97533.26312073728
2023-03-02T16:17:18.746Z,97537.06825631573
2023-03-02T16:21:17.428Z,97530.70440073723
2023-03-02T16:24:17.584Z,97530.09059853795
2023-03-02T16:27:17.334Z,97533.58833188609
2023-03-02T16:31:19.418Z,97528.36622566724
2023-03-02T16:34:18.296Z,97534.7381367647
2023-03-02T16:37:17.241Z,97530.89036431597
2023-03-02T16:41:18.526Z,97537.34766172562
2023-03-02T16:44:18.270Z,97543.7854687222
2023-03-02T16:47:17.486Z,97547.81271816019
2023-03-02T16:51:18.626Z,97553.6064195755
2023-03-02T16:54:17.748Z,97557.21562068103
2023-03-02T16:57:17.734Z,97565.81524237545
2023-03-02T17:01:19.494Z,97573.02650711326
2023-03-02T17:04:19.014Z,97573.9193261736
2023-03-02T17:07:18.739Z,97574.84623210535
2023-03-02T17:11:16.764Z,97583.7038161936
2023-03-02T17:14:17.001Z,97574.28444067527
2023-03-02T17:17:17.175Z,97571.50946534873
2023-03-02T17:21:16.970Z,97584.9828225276
2023-03-02T17:24:17.456Z,97591.45154050244
2023-03-02T17:27:24.900Z,97594.02013426629
2023-03-02T17:31:16.174Z,97601.57312957024
2023-03-02T17:34:16.641Z,97599.90060373221
2023-03-02T17:37:17.942Z,97606.79123490081
2023-03-02T17:41:17.167Z,97617.78930303371
2023-03-02T17:44:17.432Z,97621.29060366287
2023-03-02T17:47:17.136Z,97622.82202375833
2023-03-02T17:51:16.913Z,97629.95522966713
2023-03-02T17:54:17.147Z,97629.72042540491
2023-03-02T17:57:22.465Z,97637.48370742412
2023-03-02T18:01:16.951Z,97647.08980757068
2023-03-02T18:04:17.322Z,97655.02631228887
2023-03-02T18:07:17.080Z,97655.7881507339
2023-03-02T18:11:19.265Z,97658.52472774757
2023-03-02T18:14:19.808Z,97656.32652135921
2023-03-02T18:17:17.584Z,97664.63447036047
2023-03-02T18:21:17.567Z,97676.14422703536
2023-03-02T18:24:16.672Z,97679.27419531578
2023-03-02T18:27:16.530Z,97687.76910126742
2023-03-02T18:31:18.120Z,97693.33422823394
2023-03-02T18:34:17.390Z,97695.13377499722
2023-03-02T18:37:17.313Z,97696.29380352583
2023-03-02T18:41:17.604Z,97701.03512106014
2023-03-02T18:44:18.265Z,97702.2828503327
2023-03-02T18:47:18.026Z,97699.38721404399
2023-03-02T18:51:17.403Z,97704.08698313465
2023-03-02T18:54:17.141Z,97706.20872244392
2023-03-02T18:57:16.913Z,97713.22608229995
2023-03-02T19:01:18.084Z,97716.29108100035
2023-03-02T19:04:17.718Z,97711.34448717143
2023-03-02T19:07:17.222Z,97715.9682995804
2023-03-02T19:11:17.289Z,97724.06655250811
2023-03-02T19:14:17.640Z,97731.20718175708
2023-03-02T19:17:17.565Z,97736.09909352653
2023-03-02T19:21:16.959Z,97742.15213629224
2023-03-02T19:24:17.255Z,97747.73108034441
2023-03-02T19:27:17.278Z,97747.56718789377
2023-03-02T19:31:16.725Z,97745.4572552541
2023-03-02T19:34:17.147Z,97754.14161375588
2023-03-02T19:37:16.683Z,97753.8589445192
2023-03-02T19:41:18.860Z,97751.00424691067
2023-03-02T19:44:17.203Z,97756.39549036957
2023-03-02T19:47:17.216Z,97754.9211149418
2023-03-02T19:51:16.457Z,97755.4266653191
2023-03-02T19:54:16.782Z,97761.32838470147
2023-03-02T19:57:16.788Z,97764.89122218394
2023-03-02T20:01:22.315Z,97769.37215983168
2023-03-02T20:04:17.794Z,97771.95785757717
2023-03-02T20:07:17.632Z,97771.59882596364
2023-03-02T20:11:19.821Z,97776.11583910095
2023-03-02T20:14:31.574Z,97783.99501452132
2023-03-02T20:17:17.829Z,97789.1439825278
2023-03-02T20:21:17.990Z,97788.08215740444
2023-03-02T20:24:20.445Z,97791.18517715299
2023-03-02T20:27:18.699Z,97796.02781726103
2023-03-02T20:31:19.916Z,97796.50242042603
2023-03-02T20:34:19.309Z,97802.735013253
2023-03-02T20:37:29.019Z,97802.72397115178
2023-03-02T20:41:19.118Z,97813.89525656516
2023-03-02T20:44:23.584Z,97809.67979383512
2023-03-02T20:47:20.630Z,97812.33005351803
2023-03-02T20:51:18.965Z,97812.26092969651
2023-03-02T20:54:19.387Z,97816.38323343024
2023-03-02T20:57:24.571Z,97819.51138012527
2023-03-02T21:01:20.602Z,97817.50047870936
2023-03-02T21:04:19.470Z,97811.41901762402
2023-03-02T21:07:18.744Z,97817.0104015666
2023-03-02T21:11:21.635Z,97811.43282537238
2023-03-02T21:14:17.617Z,97810.8731269703
2023-03-02T21:17:17.148Z,97811.26602865988
2023-03-02T21:21:23.074Z,97809.72242602178
2023-03-02T21:25:18.724Z,97810.54875183036
2023-03-02T21:27:19.356Z,97809.0882450088
2023-03-02T21:31:17.836Z,97809.33167059107
2023-03-02T21:34:17.286Z,97812.90846849771
2023-03-02T21:37:16.794Z,97810.59035217174
2023-03-02T21:41:16.835Z,97813.29689006957
2023-03-02T21:44:17.194Z,97811.70008286796
2023-03-02T21:47:16.443Z,97815.77134639815
2023-03-02T21:51:17.672Z,97810.89002132328
2023-03-02T21:54:19.427Z,97811.4085830256
2023-03-02T21:57:18.779Z,97809.37876782012
2023-03-02T22:01:16.528Z,97809.32190339641
2023-03-02T22:04:16.812Z,97808.58104549312
2023-03-02T22:07:18.000Z,97814.75796221457
2023-03-02T22:11:21.743Z,97813.41163731834
2023-03-02T22:14:18.152Z,97813.67676798133
2023-03-02T22:17:20.439Z,97815.16603579714
2023-03-02T22:21:23.412Z,97819.29726353262
2023-03-02T22:24:21.651Z,97821.35758443137
2023-03-02T22:27:23.648Z,97812.48405587912
2023-03-02T22:31:20.830Z,97808.97946930198
2023-03-02T22:34:22.449Z,97811.14182735459
2023-03-02T22:37:19.756Z,97809.34404640322
2023-03-02T22:41:19.407Z,97814.51055419852
2023-03-02T22:44:19.409Z,97816.16883060637
2023-03-02T22:47:19.037Z,97817.48876305814
2023-03-02T22:51:17.874Z,97820.2616521468
2023-03-02T22:54:29.923Z,97816.02123510215
2023-03-02T22:57:29.667Z,97818.67125572862
2023-03-02T23:01:21.190Z,97823.85305295375
2023-03-02T23:04:20.878Z,97824.97057434078
2023-03-02T23:07:19.449Z,97821.58616558404
2023-03-02T23:11:18.125Z,97827.88487559411
2023-03-02T23:14:22.892Z,97833.66431126505
2023-03-02T23:17:20.273Z,97841.6976433038
2023-03-02T23:21:20.147Z,97843.46992663539
2023-03-02T23:24:19.586Z,97843.25462695894
2023-03-02T23:27:17.097Z,97841.58758401495
2023-03-02T23:31:17.122Z,97842.33608323944
2023-03-02T23:34:17.178Z,97836.84476580814
2023-03-02T23:37:17.036Z,97835.70353106782
2023-03-02T23:41:16.775Z,97840.06074047166
2023-03-02T23:44:17.517Z,97834.20699430957
2023-03-02T23:47:16.819Z,97833.71929927458
2023-03-02T23:51:17.495Z,97835.55533002979
2023-03-02T23:54:17.917Z,97840.18655858639
2023-03-02T23:57:17.388Z,97837.35972608872
